FW8461 Weather Reports


Display with metric or nautical units.
time (UTC)temp
F
wind
direction
speed
MPH
gust
MPH
rain 1hr
in
rain 24hr
in
rain mn
in
humidity
%
barometer
mb
20221209155305 51 323 2.0 4.0 0.00 0.00 0.00 72 1022.3
20221209154803 51 335 6.0 7.0 0.00 0.00 0.00 69 1022.7
20221209154302 51 43 9.0 13.0 0.00 0.00 0.00 70 1022.7
20221209153801 51 25 4.0 6.0 0.00 0.00 0.00 71 1022.7
20221209153301 51 240 3.0 10.0 0.00 0.00 0.00 72 1022.7
20221209152800 51 300 4.0 8.0 0.00 0.00 0.00 71 1022.7
20221209152258 50 30 0.0 3.0 0.00 0.00 0.00 74 1022.7
20221209151757 49 315 3.0 8.0 0.00 0.00 0.00 74 1022.3
20221209151255 49 30 3.0 7.0 0.00 0.00 0.00 74 1022.7
20221209150755 49 285 4.0 9.0 0.00 0.00 0.00 74 1022.7
20221209150254 50 284 4.0 4.0 0.00 0.00 0.00 72 1022.7
20221209145753 50 246 3.0 7.0 0.00 0.00 0.00 72 1022.7
20221209145253 49 351 4.0 8.0 0.00 0.00 0.00 73 1022.3
20221209144752 49 270 2.0 10.0 0.00 0.00 0.00 74 1022.3
20221209144252 49 317 3.0 6.0 0.00 0.00 0.00 73 1022.3
20221209143752 50 339 4.0 9.0 0.00 0.00 0.00 73 1022.7
20221209143250 50 26 9.0 10.0 0.00 0.00 0.00 72 1022.7
20221209142750 50 323 4.0 8.0 0.00 0.00 0.00 72 1022.3
20221209142250 50 89 4.0 11.0 0.00 0.00 0.00 72 1022.3
20221209141749 50 21 6.0 9.0 0.00 0.00 0.00 72 1022.3
20221209141249 50 263 4.0 8.0 0.00 0.00 0.00 72 1022.3
20221209140748 50 352 4.0 7.0 0.00 0.00 0.00 72 1022.3
20221209140247 50 313 3.0 7.0 0.00 0.00 0.00 73 1022.0
20221209135746 49 354 5.0 9.0 0.00 0.00 0.00 72 1022.0
20221209135245 50 319 4.0 11.0 0.00 0.00 0.00 72 1022.3
20221209134744 50 39 3.0 7.0 0.00 0.00 0.00 72 1022.3
20221209134242 49 338 3.0 7.0 0.00 0.00 0.00 73 1022.0
20221209133742 48 24 1.0 4.0 0.00 0.00 0.00 74 1022.3
20221209133242 48 20 4.0 6.0 0.00 0.00 0.00 74 1022.0
20221209132742 48 312 2.0 6.0 0.00 0.00 0.00 74 1022.0
20221209132242 48 14 2.0 6.0 0.00 0.00 0.00 73 1022.0
20221209131740 48 36 2.0 4.0 0.00 0.00 0.00 73 1022.0
20221209131238 48 3 4.0 8.0 0.00 0.00 0.00 72 1022.0
20221209130737 48 334 3.0 4.0 0.00 0.00 0.00 72 1022.0
20221209130236 48 292 3.0 8.0 0.00 0.00 0.00 72 1022.0
20221209125736 48 24 4.0 7.0 0.00 0.00 0.00 73 1021.6
20221209125234 48 18 6.0 8.0 0.00 0.00 0.00 72 1022.0
20221209124733 48 32 3.0 4.0 0.00 0.00 0.00 73 1022.0
20221209124231 48 271 3.0 7.0 0.00 0.00 0.00 73 1022.0
20221209123731 48 337 3.0 4.0 0.00 0.00 0.00 73 1022.0
20221209123230 47 357 3.0 6.0 0.00 0.00 0.00 74 1022.0
20221209122730 47 354 2.0 3.0 0.00 0.00 0.00 74 1022.0
20221209122228 47 24 3.0 3.0 0.00 0.00 0.00 74 1022.0
20221209121726 47 12 2.0 3.0 0.00 0.00 0.00 74 1021.6
20221209121225 47 23 3.0 6.0 0.00 0.00 0.00 73 1021.6
20221209120724 47 22 3.0 4.0 0.00 0.00 0.00 73 1021.6
20221209120224 47 17 3.0 4.0 0.00 0.00 0.00 73 1021.6
20221209115723 47 351 4.0 6.0 0.00 0.00 0.00 73 1021.6
20221209115222 47 294 3.0 6.0 0.00 0.00 0.00 73 1021.6
20221209114722 47 1 3.0 4.0 0.00 0.00 0.00 73 1021.6
20221209114220 47 30 2.0 4.0 0.00 0.00 0.00 73 1021.6
20221209113719 48 304 1.0 3.0 0.00 0.00 0.00 73 1022.0
20221209113220 48 253 1.0 4.0 0.00 0.00 0.00 73 1021.6
20221209112718 48 41 2.0 4.0 0.00 0.00 0.00 73 1021.6
20221209112217 48 20 4.0 8.0 0.00 0.00 0.00 73 1022.0
20221209111718 48 5 2.0 8.0 0.00 0.00 0.00 73 1021.6
20221209111216 48 20 6.0 9.0 0.00 0.00 0.00 73 1021.6
20221209110716 48 0 4.0 4.0 0.00 0.00 0.00 74 1021.3
20221209110214 48 28 6.0 8.0 0.00 0.00 0.00 74 1021.3
20221209105713 48 3 4.0 7.0 0.00 0.00 0.00 74 1021.6
20221209105212 48 14 3.0 6.0 0.00 0.00 0.00 73 1021.3
20221209104710 48 0 3.0 4.0 0.00 0.00 0.00 73 1021.6
20221209104209 48 22 3.0 9.0 0.00 0.00 0.00 73 1021.6
20221209103708 48 17 3.0 6.0 0.00 0.00 0.00 74 1021.3
20221209103206 49 297 3.0 6.0 0.00 0.00 0.00 74 1021.6
20221209102706 49 324 2.0 4.0 0.00 0.00 0.00 74 1021.6
20221209102206 49 320 3.0 7.0 0.00 0.00 0.00 74 1021.3
20221209101704 49 4 2.0 7.0 0.00 0.00 0.00 73 1021.3
20221209101200 49 235 1.0 4.0 0.00 0.00 0.00 73 1021.6
20221209100700 49 37 3.0 4.0 0.00 0.00 0.00 73 1021.3
20221209100200 49 311 2.0 3.0 0.00 0.00 0.00 72 1021.6
20221209095659 49 45 4.0 9.0 0.00 0.00 0.00 72 1021.3
20221209095159 49 281 2.0 4.0 0.00 0.00 0.00 73 1021.3
20221209094657 49 276 1.0 2.0 0.00 0.00 0.00 73 1021.3
20221209094155 49 281 3.0 6.0 0.00 0.00 0.00 73 1021.3
20221209093654 49 315 2.0 3.0 0.00 0.00 0.00 72 1021.3
20221209093153 49 289 2.0 4.0 0.00 0.00 0.00 73 1021.3
20221209092651 49 263 1.0 6.0 0.00 0.00 0.00 73 1021.3
20221209092150 49 327 1.0 3.0 0.00 0.00 0.00 73 1021.3
20221209091648 49 291 2.0 3.0 0.00 0.00 0.00 74 1021.3
20221209091147 49 50 2.0 4.0 0.00 0.00 0.00 73 1021.6
20221209090646 49 268 1.0 4.0 0.00 0.00 0.00 75 1021.6
20221209090145 49 4 2.0 3.0 0.00 0.00 0.00 76 1021.3
20221209085645 49 29 4.0 6.0 0.00 0.00 0.00 75 1021.3
20221209085144 49 290 4.0 6.0 0.00 0.00 0.00 75 1021.3
20221209084643 50 250 2.0 6.0 0.00 0.00 0.00 75 1021.3
20221209084142 50 276 4.0 7.0 0.00 0.00 0.00 75 1021.3
20221209083640 50 19 4.0 6.0 0.00 0.00 0.00 75 1021.3
20221209083140 50 267 1.0 3.0 0.00 0.00 0.00 76 1021.3
20221209082640 50 282 2.0 4.0 0.00 0.00 0.00 76 1021.6
20221209082140 50 297 2.0 2.0 0.00 0.00 0.00 76 1021.6
20221209081638 50 12 4.0 6.0 0.00 0.00 0.00 76 1021.6
20221209081136 50 30 4.0 4.0 0.00 0.00 0.00 76 1021.3
20221209080635 50 21 2.0 4.0 0.00 0.00 0.00 76 1021.6
20221209080135 50 28 4.0 7.0 0.00 0.00 0.00 76 1021.6
20221209075633 50 293 2.0 7.0 0.00 0.00 0.00 77 1021.6
20221209075132 50 22 7.0 8.0 0.00 0.00 0.00 77 1021.3
20221209074628 50 325 3.0 4.0 0.00 0.00 0.00 78 1021.3
20221209074128 50 19 2.0 9.0 0.00 0.00 0.00 78 1021.6
20221209073626 50 294 2.0 6.0 0.00 0.00 0.00 78 1021.6
20221209073126 50 318 2.0 6.0 0.00 0.00 0.00 79 1021.6
20221209072624 50 305 3.0 6.0 0.00 0.00 0.00 79 1021.6
20221209072123 50 27 4.0 8.0 0.00 0.00 0.00 80 1021.3
20221209071622 51 23 3.0 4.0 0.00 0.00 0.00 80 1021.6
20221209071121 51 320 3.0 7.0 0.00 0.00 0.00 81 1021.6
20221209070619 51 313 3.0 6.0 0.00 0.00 0.00 82 1021.6
20221209070119 51 281 1.0 3.0 0.00 0.00 0.00 82 1021.3
20221209065617 51 357 1.0 2.0 0.00 0.00 0.00 82 1021.6
20221209065116 51 304 1.0 3.0 0.00 0.00 0.00 82 1021.6
20221209064615 51 316 2.0 6.0 0.00 0.00 0.00 82 1021.6
20221209064115 51 8 3.0 7.0 0.00 0.00 0.00 82 1021.6
20221209063614 51 259 3.0 4.0 0.00 0.00 0.00 82 1021.6
20221209063114 51 6 2.0 6.0 0.00 0.00 0.00 81 1021.6
20221209062614 51 286 4.0 6.0 0.00 0.00 0.00 81 1021.6
20221209062114 51 28 4.0 6.0 0.00 0.00 0.00 80 1021.3
20221209061612 51 34 4.0 6.0 0.00 0.00 0.00 80 1021.3
20221209061112 51 337 2.0 4.0 0.00 0.00 0.00 79 1021.3
20221209060612 52 38 6.0 9.0 0.00 0.00 0.00 78 1021.6
20221209060112 52 20 4.0 9.0 0.00 0.00 0.00 78 1021.6
20221209055611 52 67 3.0 8.0 0.00 0.00 0.00 78 1021.6
20221209055109 52 32 3.0 7.0 0.00 0.00 0.00 77 1021.6
20221209054609 52 59 3.0 4.0 0.00 0.00 0.00 77 1021.6
20221209054109 52 41 2.0 4.0 0.00 0.00 0.00 77 1022.0
20221209053607 52 3 4.0 6.0 0.00 0.00 0.00 77 1021.6
20221209053105 52 314 3.0 3.0 0.00 0.00 0.00 77 1022.0
20221209052604 52 282 2.0 7.0 0.00 0.00 0.00 78 1022.0
20221209052103 52 286 2.0 3.0 0.00 0.00 0.00 78 1022.0
20221209051602 52 354 2.0 6.0 0.00 0.00 0.00 78 1021.6
20221209051100 52 317 1.0 3.0 0.00 0.00 0.00 78 1021.6
20221209050559 52 17 2.0 4.0 0.00 0.00 0.00 78 1021.6
20221209050058 52 32 3.0 6.0 0.00 0.00 0.00 79 1021.6
20221209045556 52 18 4.0 6.0 0.00 0.00 0.00 79 1021.6
20221209045055 52 332 1.0 4.0 0.00 0.00 0.00 79 1022.0
20221209044555 52 30 3.0 7.0 0.00 0.00 0.00 80 1021.6
20221209044054 52 298 1.0 6.0 0.00 0.00 0.00 80 1021.3
20221209043554 52 263 4.0 4.0 0.00 0.00 0.00 81 1021.6
20221209043053 52 331 1.0 2.0 0.00 0.00 0.00 82 1021.6
20221209042552 52 275 2.0 3.0 0.00 0.00 0.00 82 1021.6
20221209042051 52 24 2.0 3.0 0.00 0.00 0.00 82 1021.6
20221209041551 52 339 1.0 2.0 0.00 0.00 0.00 82 1021.6
20221209041049 52 347 2.0 4.0 0.00 0.00 0.00 82 1021.6
20221209040548 52 17 3.0 6.0 0.00 0.00 0.00 82 1021.0
20221209040048 52 46 2.0 7.0 0.00 0.00 0.00 82 1021.3
20221209035546 52 7 4.0 6.0 0.00 0.00 0.00 82 1021.6
20221209035045 52 258 2.0 3.0 0.00 0.00 0.00 82 1022.0
20221209034544 52 269 2.0 3.0 0.00 0.00 0.00 82 1022.0
20221209034044 52 313 2.0 2.0 0.00 0.00 0.00 82 1021.6
20221209033542 52 285 2.0 2.0 0.00 0.00 0.00 82 1021.6
20221209033041 52 230 1.0 2.0 0.00 0.00 0.00 82 1021.6
20221209032540 52 253 1.0 2.0 0.00 0.00 0.00 82 1021.6
20221209032040 52 238 1.0 2.0 0.00 0.00 0.00 82 1021.3
20221209031539 52 354 1.0 1.0 0.00 0.00 0.00 82 1021.3
20221209031038 52 268 1.0 2.0 0.00 0.00 0.00 81 1021.3
20221209030537 52 25 2.0 3.0 0.00 0.00 0.00 81 1021.0
20221209030035 52 9 2.0 2.0 0.00 0.00 0.00 82 1021.3
20221209025531 52 237 1.0 1.0 0.00 0.00 0.00 82 1021.6
20221209025031 52 210 0.0 0.0 0.00 0.00 0.00 81 1021.6
20221209024529 52 359 1.0 1.0 0.00 0.00 0.00 81 1021.6
20221209024028 52 285 2.0 2.0 0.00 0.00 0.00 81 1021.3
20221209023526 53 32 2.0 3.0 0.00 0.00 0.00 81 1021.3
20221209023026 52 355 1.0 3.0 0.00 0.00 0.00 81 1021.3
20221209022525 52 304 1.0 2.0 0.00 0.00 0.00 81 1021.3
20221209022024 52 320 2.0 2.0 0.00 0.00 0.00 81 1021.6
20221209021524 52 21 1.0 3.0 0.00 0.00 0.00 81 1021.3
20221209021022 52 40 2.0 3.0 0.00 0.00 0.00 81 1021.3
20221209020521 52 267 1.0 3.0 0.00 0.00 0.00 81 1021.3
20221209020020 52 322 3.0 4.0 0.00 0.00 0.00 82 1021.3
20221209015518 52 25 2.0 3.0 0.00 0.00 0.00 82 1021.6
20221209015018 52 281 2.0 2.0 0.00 0.00 0.00 82 1021.6
20221209014518 52 261 1.0 2.0 0.00 0.00 0.00 82 1021.6
20221209014017 52 21 2.0 3.0 0.00 0.00 0.00 82 1021.6
20221209013517 53 16 2.0 3.0 0.00 0.00 0.00 82 1021.6
20221209013016 52 31 3.0 3.0 0.00 0.00 0.00 82 1021.6
20221209012516 53 19 3.0 4.0 0.00 0.00 0.00 82 1021.6
20221209012014 53 284 2.0 6.0 0.00 0.00 0.00 82 1022.0
20221209011513 53 304 2.0 4.0 0.00 0.00 0.00 82 1021.6
20221209011012 53 23 3.0 8.0 0.00 0.00 0.00 82 1021.6
20221209010512 53 103 2.0 3.0 0.00 0.00 0.00 82 1021.6
20221209010012 52 347 2.0 2.0 0.00 0.00 0.00 82 1021.6
20221209005510 53 248 1.0 2.0 0.00 0.00 0.00 82 1021.6
20221209005010 53 274 1.0 3.0 0.00 0.00 0.00 82 1021.6
20221209004511 53 284 2.0 3.0 0.00 0.00 0.00 82 1021.6
20221209004010 52 240 1.0 3.0 0.00 0.00 0.00 82 1021.6
20221209003510 53 251 1.0 3.0 0.00 0.00 0.00 82 1021.6
20221209003010 53 19 2.0 4.0 0.00 0.00 0.00 82 1021.6
20221209002508 52 287 1.0 2.0 0.00 0.00 0.00 83 1021.6
20221209002007 52 18 2.0 3.0 0.00 0.00 0.00 83 1021.6
20221209001506 52 270 2.0 3.0 0.00 0.00 0.00 83 1021.6
20221209001006 52 252 2.0 3.0 0.00 0.00 0.00 83 1021.6
20221209000506 52 328 2.0 3.0 0.00 0.00 0.00 83 1021.3
20221209000006 53 312 2.0 4.0 0.00 0.00 0.00 82 1021.6
20221208235504 53 268 2.0 4.0 0.00 0.00 0.00 82 1021.3
20221208235004 53 290 2.0 3.0 0.00 0.00 0.00 81 1021.3
20221208234503 53 338 1.0 3.0 0.00 0.00 0.00 81 1021.3
20221208234002 53 268 2.0 3.0 0.00 0.00 0.00 81 1021.0
20221208233501 53 259 1.0 2.0 0.00 0.00 0.00 80 1021.3
20221208232959 53 240 1.0 2.0 0.00 0.00 0.00 80 1021.3
20221208232459 53 22 1.0 2.0 0.00 0.00 0.00 79 1021.3
20221208231958 53 22 2.0 2.0 0.00 0.00 0.00 79 1021.3
20221208231458 53 17 4.0 4.0 0.00 0.00 0.00 79 1021.3
20221208230957 53 248 0.0 2.0 0.00 0.00 0.00 79 1021.6
20221208230453 53 262 2.0 3.0 0.00 0.00 0.00 79 1021.6
20221208225953 54 285 2.0 3.0 0.00 0.00 0.00 78 1021.6
20221208225453 54 9 3.0 7.0 0.00 0.00 0.00 78 1021.6
20221208224952 54 259 2.0 4.0 0.00 0.00 0.00 78 1022.0
20221208224451 54 28 2.0 3.0 0.00 0.00 0.00 78 1021.6
20221208223950 54 314 3.0 4.0 0.00 0.00 0.00 78 1021.6
20221208223450 54 288 2.0 3.0 0.00 0.00 0.00 79 1022.0
20221208222949 54 294 2.0 3.0 0.00 0.00 0.00 79 1021.6
20221208222448 54 344 0.0 3.0 0.00 0.00 0.00 80 1021.3
20221208221947 54 335 2.0 6.0 0.00 0.00 0.00 80 1021.3
20221208221445 54 22 3.0 4.0 0.00 0.00 0.00 80 1021.6
20221208220944 54 20 2.0 3.0 0.00 0.00 0.00 80 1021.0
20221208220443 54 30 2.0 4.0 0.00 0.00 0.00 80 1021.0
20221208215942 54 261 2.0 3.0 0.00 0.00 0.00 80 1021.0
20221208215442 54 339 2.0 4.0 0.00 0.00 0.00 80 1020.6
20221208214941 54 28 2.0 8.0 0.00 0.00 0.00 80 1020.6
20221208214441 54 289 2.0 3.0 0.00 0.00 0.00 81 1021.0
20221208213941 54 354 2.0 4.0 0.00 0.00 0.00 81 1021.0
20221208213439 54 45 2.0 4.0 0.00 0.00 0.00 81 1021.3
20221208212937 54 259 2.0 4.0 0.00 0.00 0.00 81 1021.0
20221208212437 54 23 2.0 6.0 0.00 0.00 0.00 81 1021.0
20221208211938 54 347 3.0 7.0 0.00 0.00 0.00 81 1020.6
20221208211437 54 9 4.0 9.0 0.00 0.00 0.00 82 1021.0
20221208210936 54 290 4.0 6.0 0.00 0.00 0.00 85 1021.3
20221208210436 54 320 1.0 2.0 0.00 0.00 0.00 86 1021.0
20221208205936 54 280 1.0 2.0 0.00 0.00 0.00 86 1021.3
20221208205435 54 303 2.0 2.0 0.00 0.00 0.00 86 1021.3
20221208204934 54 255 1.0 2.0 0.00 0.00 0.00 86 1021.0
20221208204433 54 321 3.0 4.0 0.00 0.00 0.00 86 1021.0
20221208203933 54 136 1.0 6.0 0.00 0.00 0.00 86 1021.0
20221208203431 55 333 2.0 2.0 0.00 0.00 0.00 86 1021.0
20221208202929 54 15 3.0 4.0 0.00 0.00 0.00 86 1021.3
20221208202429 55 325 1.0 3.0 0.00 0.00 0.00 86 1021.6
20221208201927 54 331 2.0 3.0 0.00 0.00 0.00 86 1021.6
20221208201427 55 231 1.0 3.0 0.00 0.00 0.00 86 1021.6
20221208200926 55 257 1.0 3.0 0.00 0.00 0.00 86 1021.3
20221208200426 55 357 2.0 3.0 0.00 0.00 0.00 86 1021.3
20221208195927 55 255 2.0 6.0 0.00 0.00 0.00 85 1021.3
20221208195426 55 277 4.0 4.0 0.00 0.00 0.00 85 1021.3
20221208194924 55 327 2.0 4.0 0.00 0.00 0.00 85 1021.6
20221208194424 55 10 2.0 3.0 0.00 0.00 0.00 84 1021.6
20221208193923 55 292 2.0 4.0 0.00 0.00 0.00 85 1021.3
20221208193423 55 261 2.0 6.0 0.00 0.00 0.00 84 1021.3
20221208192922 55 310 2.0 4.0 0.00 0.00 0.00 84 1021.0
20221208192420 56 352 2.0 4.0 0.00 0.00 0.00 83 1021.3
20221208191919 56 28 4.0 6.0 0.00 0.00 0.00 82 1021.0
20221208191417 56 19 4.0 7.0 0.00 0.00 0.00 82 1021.3
20221208190917 57 330 4.0 6.0 0.00 0.00 0.00 81 1021.6
20221208190417 56 55 3.0 6.0 0.00 0.00 0.00 82 1021.6
20221208185916 56 289 2.0 6.0 0.00 0.00 0.00 82 1021.6
20221208185416 57 335 3.0 3.0 0.00 0.00 0.00 81 1021.3
20221208184914 56 36 2.0 4.0 0.00 0.00 0.00 82 1021.3
20221208184413 57 344 1.0 3.0 0.00 0.00 0.00 82 1021.6
20221208183913 57 320 2.0 4.0 0.00 0.00 0.00 81 1021.3
20221208183413 56 16 3.0 6.0 0.00 0.00 0.00 81 1021.3
20221208182912 56 19 3.0 6.0 0.00 0.00 0.00 81 1021.3
20221208182411 57 357 2.0 4.0 0.00 0.00 0.00 81 1021.6
20221208181910 57 11 4.0 7.0 0.00 0.00 0.00 80 1021.6
20221208181409 57 352 3.0 6.0 0.00 0.00 0.00 81 1021.6
20221208180908 57 50 3.0 9.0 0.00 0.00 0.00 81 1022.0
20221208180408 57 313 2.0 6.0 0.00 0.00 0.00 81 1022.0
20221208175908 57 289 3.0 6.0 0.00 0.00 0.00 81 1021.6
20221208175407 57 336 2.0 6.0 0.00 0.00 0.00 81 1022.0
20221208174905 57 338 2.0 8.0 0.00 0.00 0.00 80 1022.0
20221208174405 58 250 6.0 10.0 0.00 0.00 0.00 79 1022.0
20221208173903 58 33 2.0 8.0 0.00 0.00 0.00 79 1022.0
20221208173402 59 274 8.0 11.0 0.00 0.00 0.00 77 1021.6
20221208172902 58 318 5.0 9.0 0.00 0.00 0.00 79 1022.0
20221208172401 58 272 4.0 9.0 0.00 0.00 0.00 78 1022.0
20221208171900 58 13 4.0 8.0 0.00 0.00 0.00 78 1022.0
20221208171359 59 13 9.0 13.0 0.00 0.00 0.00 76 1022.0
20221208170858 60 359 5.0 8.0 0.00 0.00 0.00 75 1022.0
20221208170357 59 20 4.0 8.0 0.00 0.00 0.00 76 1021.6
20221208165857 59 8 9.0 13.0 0.00 0.00 0.00 77 1022.0
20221208165355 59 9 4.0 8.0 0.00 0.00 0.00 77 1022.3
20221208164855 59 249 3.0 9.0 0.00 0.00 0.00 77 1022.3
20221208164353 58 27 5.0 8.0 0.00 0.00 0.00 78 1022.3
20221208163852 58 252 3.0 7.0 0.00 0.00 0.00 78 1022.7
20221208163350 60 307 3.0 11.0 0.00 0.00 0.00 76 1022.3
20221208162849 60 298 2.0 7.0 0.00 0.00 0.00 76 1022.3
20221208162347 59 34 8.0 10.0 0.00 0.00 0.00 77 1022.7
20221208161846 59 7 7.0 11.0 0.00 0.00 0.00 77 1022.7
20221208161345 58 346 3.0 8.0 0.00 0.00 0.00 80 1022.7
20221208160844 59 305 4.0 8.0 0.00 0.00 0.00 79 1023.0
20221208160344 59 292 5.0 6.0 0.00 0.00 0.00 80 1022.7
20221208155843 58 217 3.0 4.0 0.00 0.00 0.00 82 1022.3